Time;durP1;ratioP1;P1;durP2;ratioP2;P2;SDS_P1;SDS_P2;PMS_P1;PMS_P2;Temp;Humidity;BMP_temperature;BMP_pressure;BME280_temperature;BME280_humidity;BME280_pressure;Samples;Min_cycle;Max_cycle;Signal;HPM_P1;HPM_P2
2022/05/24 04:13:07;;;;;;;;;;;;;;;19.14;100.00;97424.78;5992233;23;19966;31
2022/05/24 04:15:34;;;;;;;;;;;;;;;19.08;100.00;97431.56;4861839;29;19958;-72
2022/05/24 04:18:01;;;;;;;;;;;;;;;19.02;100.00;97429.38;4865420;29;19947;-72
2022/05/24 04:20:28;;;;;;;;;;;;;;;19.08;100.00;97437.22;4864562;29;19953;-72
2022/05/24 04:22:56;;;;;;;;;;;;;;;19.05;100.00;97429.69;4864718;29;19956;-74
2022/05/24 04:25:25;;;;;;;;;;;;;;;19.11;100.00;97442.75;4864018;29;19949;-72
2022/05/24 04:27:52;;;;;;;;;;;;;;;19.20;100.00;97433.41;4860727;29;19948;-73
2022/05/24 04:30:23;;;;;;;;;;;;;;;19.32;100.00;97427.56;4862284;29;19949;-73
2022/05/24 04:32:50;;;;;;;;;;;;;;;19.44;100.00;97440.03;4854229;29;19961;-72
2022/05/24 04:35:17;;;;;;;;;;;;;;;19.55;100.00;97434.59;4845464;29;19969;-72
2022/05/24 04:37:45;;;;;;;;;;;;;;;19.61;100.00;97435.53;4845480;29;19956;-73
2022/05/24 04:40:12;;;;;;;;;;;;;;;19.58;100.00;97439.31;4846017;29;19956;-73
2022/05/24 04:42:39;;;;;;;;;;;;;;;19.55;100.00;97440.28;4845707;29;19963;-73
2022/05/24 04:45:12;;;;;;;;;;;;;;;19.57;100.00;97443.41;4853166;29;19949;-72
2022/05/24 04:47:39;;;;;;;;;;;;;;;19.62;100.00;97445.59;4883943;29;19953;-73
2022/05/24 04:50:08;;;;;;;;;;;;;;;19.62;100.00;97449.22;4883092;29;19947;-72
2022/05/24 04:52:36;;;;;;;;;;;;;;;19.55;100.00;97451.63;4883361;29;19951;-72
2022/05/24 04:55:05;;;;;;;;;;;;;;;19.49;100.00;97445.00;4882686;29;19967;-73
2022/05/24 04:57:33;;;;;;;;;;;;;;;19.46;100.00;97446.78;4882929;29;19956;-73
2022/05/24 05:00:01;;;;;;;;;;;;;;;19.43;100.00;97442.06;4883394;29;20331;-72
2022/05/24 05:02:28;;;;;;;;;;;;;;;19.45;100.00;97441.56;4882971;29;19957;-72
2022/05/24 05:04:55;;;;;;;;;;;;;;;19.48;100.00;97446.28;4882847;29;19953;-72
2022/05/24 05:07:22;;;;;;;;;;;;;;;19.50;100.00;97440.94;4882670;29;19950;-72
2022/05/24 05:09:51;;;;;;;;;;;;;;;19.52;100.00;97441.22;4882624;29;19949;-72
2022/05/24 05:12:19;;;;;;;;;;;;;;;19.54;100.00;97438.69;4881854;29;19951;-72
2022/05/24 05:14:46;;;;;;;;;;;;;;;19.62;100.00;97448.44;4882426;29;19973;-72
2022/05/24 05:17:16;;;;;;;;;;;;;;;19.66;100.00;97438.50;4883069;29;19956;-72
2022/05/24 05:19:44;;;;;;;;;;;;;;;19.69;100.00;97439.59;4882793;29;19948;-71
2022/05/24 05:22:14;;;;;;;;;;;;;;;19.69;100.00;97442.41;4882139;29;19948;-71
2022/05/24 05:24:42;;;;;;;;;;;;;;;19.70;100.00;97448.88;4869787;29;19950;-71
2022/05/24 05:27:09;;;;;;;;;;;;;;;19.80;100.00;97445.53;4863760;29;19952;-70
2022/05/24 05:32:30;;;;;;;;;;;;;;;20.01;100.00;97446.50;4864515;29;19950;-71
2022/05/24 05:34:58;;;;;;;;;;;;;;;20.02;100.00;97448.88;4859549;29;20393;-71
2022/05/24 05:37:26;;;;;;;;;;;;;;;20.00;100.00;97450.63;4864388;29;19960;-71
2022/05/24 05:39:53;;;;;;;;;;;;;;;19.96;100.00;97459.31;4867188;29;19950;-71
2022/05/24 05:42:21;;;;;;;;;;;;;;;19.98;100.00;97453.16;4874255;29;20154;-71
2022/05/24 05:44:49;;;;;;;;;;;;;;;20.05;100.00;97455.66;4885023;29;19962;-71
2022/05/24 05:47:17;;;;;;;;;;;;;;;20.11;100.00;97451.66;4885300;29;19950;-71
2022/05/24 05:49:45;;;;;;;;;;;;;;;20.10;100.00;97458.59;4885666;29;19946;-71
2022/05/24 05:52:14;;;;;;;;;;;;;;;20.25;100.00;97468.00;4878552;29;19954;-71
2022/05/24 05:54:41;;;;;;;;;;;;;;;20.38;100.00;97472.66;4863280;29;19974;-71
2022/05/24 05:57:10;;;;;;;;;;;;;;;20.49;100.00;97481.44;4865368;29;20370;-71
2022/05/24 05:59:38;;;;;;;;;;;;;;;20.55;100.00;97485.97;4856549;29;20341;-71
2022/05/24 06:02:07;;;;;;;;;;;;;;;20.60;100.00;97498.69;4861160;29;19980;-71
2022/05/24 06:04:35;;;;;;;;;;;;;;;20.62;100.00;97493.31;4858686;29;19964;-71
2022/05/24 06:07:02;;;;;;;;;;;;;;;20.67;100.00;97493.44;4859058;29;19981;-71
2022/05/24 06:09:30;;;;;;;;;;;;;;;20.75;100.00;97494.66;4864815;29;19953;-71
2022/05/24 06:12:00;;;;;;;;;;;;;;;20.82;100.00;97502.81;4863076;29;19987;-71
2022/05/24 06:14:27;;;;;;;;;;;;;;;20.75;100.00;97500.34;4857014;29;20389;-71
2022/05/24 06:17:17;;;;;;;;;;;;;;;20.80;100.00;97496.81;4845223;29;19964;-71
2022/05/24 06:19:45;;;;;;;;;;;;;;;20.94;100.00;97504.59;4847644;29;19952;-71
2022/05/24 06:22:12;;;;;;;;;;;;;;;21.06;100.00;97493.47;4847982;29;19954;-71
2022/05/24 06:24:39;;;;;;;;;;;;;;;21.20;100.00;97489.88;4856080;29;19957;-71
2022/05/24 06:27:07;;;;;;;;;;;;;;;21.34;100.00;97492.72;4850199;29;19959;-71
2022/05/24 06:29:36;;;;;;;;;;;;;;;21.49;100.00;97504.13;4859178;29;20337;-71
2022/05/24 06:32:06;;;;;;;;;;;;;;;21.54;100.00;97494.91;4847655;29;20526;-70
2022/05/24 06:34:34;;;;;;;;;;;;;;;21.62;100.00;97495.28;4847578;29;19968;-71
2022/05/24 06:37:01;;;;;;;;;;;;;;;21.71;100.00;97495.19;4847910;29;19957;-70
2022/05/24 06:39:29;;;;;;;;;;;;;;;21.78;100.00;97489.88;4847082;29;20337;-72
2022/05/24 06:41:59;;;;;;;;;;;;;;;21.97;100.00;97491.25;4858262;29;19956;-72
2022/05/24 06:44:27;;;;;;;;;;;;;;;21.90;100.00;97499.41;4866180;29;19956;-71
2022/05/24 06:46:55;;;;;;;;;;;;;;;21.83;100.00;97496.94;4861388;29;19995;-71
2022/05/24 06:49:22;;;;;;;;;;;;;;;21.68;100.00;97496.16;4861654;29;19947;-71
2022/05/24 06:51:49;;;;;;;;;;;;;;;21.67;100.00;97489.66;4865575;29;19947;-71
2022/05/24 06:54:16;;;;;;;;;;;;;;;21.66;100.00;97499.50;4861853;29;19957;-71
2022/05/24 06:56:43;;;;;;;;;;;;;;;21.88;100.00;97502.75;4866130;29;19946;-71
2022/05/24 07:04:42;;;;;;;;;;;;;;;22.18;100.00;97492.84;4838684;29;19958;-71
2022/05/24 07:07:10;;;;;;;;;;;;;;;22.30;100.00;97505.22;4843908;29;20238;-71
2022/05/24 07:09:40;;;;;;;;;;;;;;;22.51;100.00;97506.00;4843445;29;20361;-71
2022/05/24 07:12:07;;;;;;;;;;;;;;;22.58;100.00;97502.75;4840357;29;19953;-72
2022/05/24 07:14:34;;;;;;;;;;;;;;;22.47;100.00;97509.06;4841586;29;19975;-71
2022/05/24 07:17:02;;;;;;;;;;;;;;;22.53;100.00;97503.44;4861567;29;20330;-71
2022/05/24 07:19:30;;;;;;;;;;;;;;;22.70;100.00;97504.50;4846495;29;19956;-71
2022/05/24 07:21:57;;;;;;;;;;;;;;;22.92;100.00;97495.44;4844043;29;19957;-71
2022/05/24 07:24:24;;;;;;;;;;;;;;;22.93;100.00;97497.78;4844367;29;19955;-71
2022/05/24 07:26:52;;;;;;;;;;;;;;;22.77;100.00;97498.34;4828765;29;19946;-71
2022/05/24 07:29:21;;;;;;;;;;;;;;;22.82;100.00;97506.97;4838788;29;19953;-71
2022/05/24 07:31:48;;;;;;;;;;;;;;;22.89;100.00;97502.91;4828561;29;19951;-71
2022/05/24 07:34:15;;;;;;;;;;;;;;;22.93;100.00;97503.50;4846818;29;19955;-72
2022/05/24 07:36:43;;;;;;;;;;;;;;;23.02;100.00;97505.41;4862541;29;19970;-71
2022/05/24 07:39:10;;;;;;;;;;;;;;;22.86;100.00;97506.78;4859918;29;19949;-72
2022/05/24 07:47:30;;;;;;;;;;;;;;;23.03;100.00;97509.84;4838356;29;19956;-71
2022/05/24 07:49:57;;;;;;;;;;;;;;;22.82;100.00;97509.03;4849875;29;19956;-71
2022/05/24 07:52:25;;;;;;;;;;;;;;;22.87;100.00;97505.47;4864779;29;19958;-71
2022/05/24 07:54:52;;;;;;;;;;;;;;;22.82;100.00;97506.97;4862047;29;19972;-71
2022/05/24 07:57:20;;;;;;;;;;;;;;;23.07;100.00;97507.53;4846467;29;20260;-71
2022/05/24 07:59:50;;;;;;;;;;;;;;;23.13;100.00;97508.41;4849227;29;19977;-71
2022/05/24 08:02:18;;;;;;;;;;;;;;;23.33;100.00;97508.34;4845009;29;19961;-71
2022/05/24 08:04:46;;;;;;;;;;;;;;;23.18;100.00;97501.97;4846112;29;19952;-71
2022/05/24 08:07:13;;;;;;;;;;;;;;;23.29;100.00;97508.56;4844803;29;19955;-71
2022/05/24 08:09:41;;;;;;;;;;;;;;;23.48;100.00;97509.06;4846056;29;20338;-71
2022/05/24 08:12:08;;;;;;;;;;;;;;;23.66;100.00;97500.16;4845811;29;20250;-71
2022/05/24 08:14:35;;;;;;;;;;;;;;;23.76;100.00;97501.56;4857140;29;19973;-72
2022/05/24 08:17:03;;;;;;;;;;;;;;;23.84;100.00;97499.78;4863592;29;20278;-71
2022/05/24 08:19:32;;;;;;;;;;;;;;;24.14;100.00;97506.81;4863597;29;19951;-71
2022/05/24 08:21:59;;;;;;;;;;;;;;;24.21;100.00;97516.22;4863986;29;20235;-72
2022/05/24 08:24:27;;;;;;;;;;;;;;;24.35;100.00;97515.28;4862441;29;19951;-71
2022/05/24 08:26:54;;;;;;;;;;;;;;;24.34;100.00;97522.28;4863184;29;20246;-71
2022/05/24 08:29:21;;;;;;;;;;;;;;;24.48;100.00;97507.03;4862040;29;19960;-71
2022/05/24 08:31:49;;;;;;;;;;;;;;;24.39;100.00;97512.94;4866496;29;19959;-72
2022/05/24 08:34:16;;;;;;;;;;;;;;;24.14;100.00;97512.53;4875516;29;19957;-72
2022/05/24 08:36:43;;;;;;;;;;;;;;;24.24;100.00;97515.19;4864081;29;19965;-72
2022/05/24 08:39:11;;;;;;;;;;;;;;;24.38;100.00;97512.16;4874719;29;19953;-72
2022/05/24 08:41:54;;;;;;;;;;;;;;;24.45;100.00;97503.13;4865469;29;20635;-72
2022/05/24 08:50:03;;;;;;;;;;;;;;;24.15;100.00;97491.25;4845610;29;19961;-71
2022/05/24 08:52:38;;;;;;;;;;;;;;;24.11;100.00;97495.63;4856088;29;19975;-71
2022/05/24 08:55:06;;;;;;;;;;;;;;;23.84;100.00;97499.03;4870217;29;20245;-72
2022/05/24 08:57:43;;;;;;;;;;;;;;;24.28;100.00;97498.59;4873211;29;19956;-71
2022/05/24 09:00:13;;;;;;;;;;;;;;;24.34;100.00;97502.25;4878334;29;19950;-71
2022/05/24 09:02:43;;;;;;;;;;;;;;;23.94;100.00;97498.31;4885411;29;19951;-71
2022/05/24 09:05:22;;;;;;;;;;;;;;;23.95;100.00;97494.19;4872691;29;19953;-71
2022/05/24 09:08:01;;;;;;;;;;;;;;;23.82;100.00;97482.38;4848031;29;20330;-71
2022/05/24 09:10:38;;;;;;;;;;;;;;;24.22;100.00;97503.47;4866425;29;20840;-71
2022/05/24 09:13:32;;;;;;;;;;;;;;;24.18;100.00;97501.63;4867405;29;20024;-71
2022/05/24 09:16:08;;;;;;;;;;;;;;;23.92;100.00;97498.03;4827200;29;19985;-72
2022/05/24 09:18:54;;;;;;;;;;;;;;;24.00;100.00;97498.38;4864996;29;19950;-72
2022/05/24 09:21:25;;;;;;;;;;;;;;;23.80;100.00;97495.59;4861478;29;19952;-71
2022/05/24 09:24:05;;;;;;;;;;;;;;;24.21;100.00;97490.50;4868516;29;19953;-72
2022/05/24 09:26:34;;;;;;;;;;;;;;;24.14;100.00;97492.53;4867433;29;19949;-73
2022/05/24 09:29:10;;;;;;;;;;;;;;;24.09;100.00;97481.84;4870701;29;19950;-70
2022/05/24 09:31:41;;;;;;;;;;;;;;;24.10;100.00;97485.50;4866578;29;19954;-71
2022/05/24 09:34:17;;;;;;;;;;;;;;;24.16;100.00;97489.94;4879119;29;19951;-70
2022/05/24 09:36:58;;;;;;;;;;;;;;;24.72;100.00;97496.78;4864444;29;19966;-70
2022/05/24 09:39:32;;;;;;;;;;;;;;;24.59;100.00;97492.81;4876531;29;19949;-71
2022/05/24 09:42:00;;;;;;;;;;;;;;;24.56;100.00;97488.91;4865222;29;19954;-71
2022/05/24 09:44:29;;;;;;;;;;;;;;;24.77;100.00;97487.47;4866750;29;19956;-71
2022/05/24 09:46:57;;;;;;;;;;;;;;;24.77;100.00;97489.56;4875240;29;19950;-71
2022/05/24 09:49:31;;;;;;;;;;;;;;;24.78;100.00;97476.81;4866686;29;19950;-71
2022/05/24 09:52:06;;;;;;;;;;;;;;;24.79;100.00;97482.03;4868526;29;19961;-71
2022/05/24 09:54:34;;;;;;;;;;;;;;;24.96;100.00;97489.91;4856779;29;19957;-71
2022/05/24 09:57:09;;;;;;;;;;;;;;;25.24;100.00;97488.69;4850778;29;20388;-71
2022/05/24 09:59:40;;;;;;;;;;;;;;;25.46;100.00;97492.94;4864420;29;19948;-71
2022/05/24 10:02:23;;;;;;;;;;;;;;;25.33;100.00;97481.97;4866722;29;19955;-71
2022/05/24 10:04:50;;;;;;;;;;;;;;;24.87;100.00;97488.03;4867172;29;19955;-71
2022/05/24 10:07:28;;;;;;;;;;;;;;;25.07;100.00;97490.72;4863471;29;19951;-71
2022/05/24 10:09:58;;;;;;;;;;;;;;;25.04;100.00;97488.13;4854840;29;19948;-71
2022/05/24 10:12:52;;;;;;;;;;;;;;;24.90;100.00;97486.22;4847606;29;19959;-71
2022/05/24 10:15:22;;;;;;;;;;;;;;;24.75;100.00;97480.66;4868674;29;19977;-71
2022/05/24 10:18:09;;;;;;;;;;;;;;;24.70;100.00;97490.00;4865974;29;20399;-71
2022/05/24 10:20:37;;;;;;;;;;;;;;;24.70;100.00;97487.94;4865612;29;19951;-71
2022/05/24 10:23:23;;;;;;;;;;;;;;;24.69;100.00;97485.59;4867454;29;20231;-71
2022/05/24 10:26:00;;;;;;;;;;;;;;;24.71;100.00;97480.13;4847646;29;20345;-71
2022/05/24 10:28:46;;;;;;;;;;;;;;;24.73;100.00;97486.91;4848032;29;19957;-71
2022/05/24 10:31:25;;;;;;;;;;;;;;;24.58;100.00;97489.16;4847810;29;19961;-71
2022/05/24 10:39:53;;;;;;;;;;;;;;;24.34;100.00;97483.06;4853060;29;20293;-71
2022/05/24 10:42:25;;;;;;;;;;;;;;;24.35;100.00;97483.84;4852652;29;19961;-71
2022/05/24 10:44:52;;;;;;;;;;;;;;;24.14;100.00;97486.03;4865813;29;19950;-71
2022/05/24 10:47:21;;;;;;;;;;;;;;;24.13;100.00;97485.25;4865418;29;19960;-71
2022/05/24 10:49:50;;;;;;;;;;;;;;;24.24;100.00;97489.47;4865611;29;20326;-71
2022/05/24 10:52:20;;;;;;;;;;;;;;;24.39;100.00;97475.81;4865409;29;19947;-71
2022/05/24 10:54:47;;;;;;;;;;;;;;;24.76;100.00;97485.09;4866027;29;19956;-70
2022/05/24 10:57:21;;;;;;;;;;;;;;;24.89;100.00;97481.81;4861415;29;19973;-70
2022/05/24 10:59:54;;;;;;;;;;;;;;;24.84;100.00;97486.22;4847735;29;19945;-70
2022/05/24 11:02:24;;;;;;;;;;;;;;;24.88;100.00;97489.59;4847183;29;20266;-70
2022/05/24 11:05:00;;;;;;;;;;;;;;;24.89;100.00;97487.53;4846533;29;20396;-70
2022/05/24 11:07:30;;;;;;;;;;;;;;;24.96;100.00;97492.75;4846813;29;20211;-70
2022/05/24 11:10:19;;;;;;;;;;;;;;;24.81;100.00;97487.25;4847343;29;19950;-70
2022/05/24 11:12:48;;;;;;;;;;;;;;;24.75;100.00;97487.16;4863129;29;19956;-71
2022/05/24 11:15:15;;;;;;;;;;;;;;;24.76;100.00;97483.03;4868868;29;20054;-71
2022/05/24 11:17:43;;;;;;;;;;;;;;;24.80;100.00;97492.16;4865421;29;19972;-71
2022/05/24 11:20:11;;;;;;;;;;;;;;;24.77;100.00;97498.91;4865130;29;19953;-71
2022/05/24 11:22:46;;;;;;;;;;;;;;;24.73;100.00;97492.63;4865394;29;19951;-71
2022/05/24 11:25:33;;;;;;;;;;;;;;;24.86;100.00;97492.19;4857193;29;19956;-70
2022/05/24 11:28:00;;;;;;;;;;;;;;;24.96;100.00;97492.75;4846976;29;19957;-70
2022/05/24 11:30:28;;;;;;;;;;;;;;;25.01;100.00;97489.13;4859645;29;20330;-70
2022/05/24 11:32:58;;;;;;;;;;;;;;;24.89;100.00;97482.59;4864856;29;20253;-71
2022/05/24 11:35:28;;;;;;;;;;;;;;;25.04;100.00;97486.00;4864762;29;20354;-71
2022/05/24 11:38:08;;;;;;;;;;;;;;;25.28;100.00;97479.88;4879869;29;20360;-71
2022/05/24 11:40:36;;;;;;;;;;;;;;;25.40;100.00;97473.66;4883412;29;20368;-71
2022/05/24 11:43:04;;;;;;;;;;;;;;;25.62;100.00;97470.06;4883898;29;19948;-71
2022/05/24 11:45:31;;;;;;;;;;;;;;;25.80;100.00;97471.63;4883175;29;19951;-71
2022/05/24 11:48:05;;;;;;;;;;;;;;;25.93;100.00;97471.88;4867991;29;19951;-71
2022/05/24 11:50:35;;;;;;;;;;;;;;;25.94;100.00;97476.31;4854044;29;19958;-71
2022/05/24 11:53:19;;;;;;;;;;;;;;;26.03;100.00;97471.09;4863070;29;19948;-71
2022/05/24 11:55:48;;;;;;;;;;;;;;;26.23;100.00;97478.66;4855036;29;19949;-71
2022/05/24 11:58:15;;;;;;;;;;;;;;;26.22;100.00;97468.50;4854413;29;20346;-71
2022/05/24 12:00:54;;;;;;;;;;;;;;;26.24;100.00;97465.88;4854955;29;19951;-71
2022/05/24 12:09:08;;;;;;;;;;;;;;;25.80;100.00;97466.66;4858050;29;19955;-71
2022/05/24 12:11:36;;;;;;;;;;;;;;;25.67;100.00;97460.69;4861507;29;19949;-71
2022/05/24 12:14:10;;;;;;;;;;;;;;;25.57;100.00;97467.97;4859069;29;20044;-71
2022/05/24 12:16:37;;;;;;;;;;;;;;;25.33;100.00;97464.78;4859073;29;20260;-72
2022/05/24 12:19:07;;;;;;;;;;;;;;;25.39;100.00;97466.34;4874665;29;20337;-74
2022/05/24 12:21:53;;;;;;;;;;;;;;;25.27;100.00;97466.84;4863370;29;19958;-71
2022/05/24 12:24:23;;;;;;;;;;;;;;;25.20;100.00;97465.28;4849380;29;19958;-71
2022/05/24 12:27:26;;;;;;;;;;;;;;;25.28;100.00;97466.34;4870303;29;19951;-72
2022/05/24 12:29:57;;;;;;;;;;;;;;;25.25;100.00;97461.66;4776881;30;20389;-71
2022/05/24 12:32:25;;;;;;;;;;;;;;;25.18;100.00;97464.22;4848330;29;19944;-71
2022/05/24 12:34:52;;;;;;;;;;;;;;;25.36;100.00;97461.66;4869424;29;19950;-71
2022/05/24 12:37:22;;;;;;;;;;;;;;;25.30;100.00;97462.94;4861122;29;19976;-72
2022/05/24 12:40:07;;;;;;;;;;;;;;;25.36;100.00;97458.00;4862940;29;19955;-72
2022/05/24 12:42:41;;;;;;;;;;;;;;;25.43;100.00;97464.00;4849977;29;19962;-72
2022/05/24 12:45:09;;;;;;;;;;;;;;;25.51;100.00;97460.66;4871995;29;20253;-72
2022/05/24 12:47:36;;;;;;;;;;;;;;;25.48;100.00;97456.00;4851974;29;19951;-72
2022/05/24 12:50:03;;;;;;;;;;;;;;;25.52;100.00;97462.22;4865316;29;20349;-72
2022/05/24 12:52:38;;;;;;;;;;;;;;;25.62;100.00;97461.47;4865225;29;20218;-73
2022/05/24 12:55:06;;;;;;;;;;;;;;;25.78;100.00;97454.16;4863291;29;20250;-72
2022/05/24 12:57:33;;;;;;;;;;;;;;;25.66;100.00;97452.59;4863454;29;19966;-72
2022/05/24 13:00:12;;;;;;;;;;;;;;;25.72;100.00;97450.53;4868122;29;19946;-72
2022/05/24 13:02:45;;;;;;;;;;;;;;;25.64;100.00;97447.41;4863760;29;19951;-72
2022/05/24 13:05:29;;;;;;;;;;;;;;;25.82;100.00;97455.47;4856937;29;19948;-72
2022/05/24 13:07:58;;;;;;;;;;;;;;;25.71;99.73;97446.09;4866041;29;19951;-73
2022/05/24 13:10:27;;;;;;;;;;;;;;;25.67;100.00;97457.03;4863619;29;19957;-72
2022/05/24 13:12:59;;;;;;;;;;;;;;;25.78;100.00;97454.16;4862269;29;20251;-71
2022/05/24 13:15:35;;;;;;;;;;;;;;;25.73;100.00;97452.88;4863414;29;19978;-71
2022/05/24 13:18:07;;;;;;;;;;;;;;;25.94;100.00;97462.00;4863058;29;19973;-71
2022/05/24 13:20:46;;;;;;;;;;;;;;;25.88;100.00;97452.59;4872882;29;19951;-71
2022/05/24 13:23:26;;;;;;;;;;;;;;;26.06;90.47;97463.53;4864397;29;19957;-71
2022/05/24 13:26:13;;;;;;;;;;;;;;;25.95;96.61;97454.94;4863084;29;19957;-71
2022/05/24 13:28:43;;;;;;;;;;;;;;;25.93;95.31;97458.34;4850918;29;20267;-71
2022/05/24 13:34:19;;;;;;;;;;;;;;;25.96;99.26;97442.97;4862961;29;19950;-71
2022/05/24 13:36:54;;;;;;;;;;;;;;;26.02;96.14;97452.34;4862040;29;19950;-71
2022/05/24 13:39:25;;;;;;;;;;;;;;;25.95;93.61;97440.63;4863137;29;19955;-71
2022/05/24 13:41:52;;;;;;;;;;;;;;;26.04;95.54;97444.00;4877179;29;19957;-71
2022/05/24 13:44:36;;;;;;;;;;;;;;;25.94;93.70;97441.94;4866777;29;20044;-71
2022/05/24 13:47:03;;;;;;;;;;;;;;;25.74;94.66;97431.53;4863059;29;19953;-71
2022/05/24 13:49:43;;;;;;;;;;;;;;;25.90;91.29;97435.69;4850321;29;19949;-71
2022/05/24 13:52:30;;;;;;;;;;;;;;;25.74;97.48;97431.53;4866185;29;20349;-71
2022/05/24 13:55:12;;;;;;;;;;;;;;;25.66;92.29;97433.34;4852519;29;19954;-71
2022/05/24 13:57:45;;;;;;;;;;;;;;;25.64;96.61;97430.22;4873261;29;19974;-71
2022/05/24 14:00:21;;;;;;;;;;;;;;;25.75;100.00;97426.59;4870596;29;19976;-71
2022/05/24 14:03:06;;;;;;;;;;;;;;;25.63;100.00;97436.50;4859443;29;20224;-71
2022/05/24 14:05:35;;;;;;;;;;;;;;;25.68;95.43;97432.81;4849916;29;19956;-71
2022/05/24 14:08:03;;;;;;;;;;;;;;;25.66;100.00;97432.56;4865361;29;19980;-71
2022/05/24 14:10:31;;;;;;;;;;;;;;;25.76;95.75;97443.25;4861567;29;19956;-71
2022/05/24 14:12:58;;;;;;;;;;;;;;;25.80;93.61;97438.03;4862446;29;20247;-71
2022/05/24 14:15:25;;;;;;;;;;;;;;;25.69;91.38;97434.38;4864756;29;19973;-71
2022/05/24 14:17:53;;;;;;;;;;;;;;;25.72;91.92;97439.88;4866684;29;19978;-71
2022/05/24 14:20:20;;;;;;;;;;;;;;;25.83;94.29;97442.72;4860059;29;19960;-71
2022/05/24 14:22:48;;;;;;;;;;;;;;;25.86;100.00;97438.03;4867192;29;19962;-71
2022/05/24 14:25:15;;;;;;;;;;;;;;;25.64;92.69;97444.53;4866181;29;19951;-71
2022/05/24 14:27:42;;;;;;;;;;;;;;;25.73;91.69;97434.91;4866899;29;19954;-70
2022/05/24 14:30:10;;;;;;;;;;;;;;;25.74;92.65;97437.25;4866884;29;19955;-70
2022/05/24 14:32:42;;;;;;;;;;;;;;;25.68;91.48;97429.94;4864762;29;19948;-71
2022/05/24 14:35:10;;;;;;;;;;;;;;;25.69;94.12;97438.03;4872826;29;19958;-71
2022/05/24 14:37:37;;;;;;;;;;;;;;;25.60;94.72;97431.78;4871580;29;19951;-71
2022/05/24 14:40:05;;;;;;;;;;;;;;;25.69;91.98;97431.53;4877490;29;19958;-71
2022/05/24 14:42:33;;;;;;;;;;;;;;;25.68;89.79;97429.94;4864726;29;19948;-71
2022/05/24 14:45:04;;;;;;;;;;;;;;;25.60;96.13;97426.84;4864659;29;19955;-71
2022/05/24 14:47:31;;;;;;;;;;;;;;;25.55;95.73;97415.41;4865427;29;19962;-71
2022/05/24 14:49:58;;;;;;;;;;;;;;;25.56;95.38;97422.66;4864045;29;19948;-71
2022/05/24 14:52:27;;;;;;;;;;;;;;;25.55;90.89;97426.84;4866007;29;19982;-71
2022/05/24 14:54:55;;;;;;;;;;;;;;;25.63;93.27;97427.91;4865395;29;19956;-71
2022/05/24 14:57:22;;;;;;;;;;;;;;;25.54;92.54;97419.53;4867422;29;19950;-71
2022/05/24 14:59:51;;;;;;;;;;;;;;;25.69;86.89;97415.13;4865357;29;20381;-70
2022/05/24 15:02:19;;;;;;;;;;;;;;;25.48;92.72;97419.53;4851243;29;19952;-70
2022/05/24 15:04:46;;;;;;;;;;;;;;;25.43;87.43;97406.00;4866095;29;19948;-70
2022/05/24 15:15:38;;;;;;;;;;;;;;;25.21;89.86;97397.38;4865609;29;20264;-71
2022/05/24 15:18:09;;;;;;;;;;;;;;;25.19;93.08;97392.16;4865941;29;20377;-71
2022/05/24 15:20:37;;;;;;;;;;;;;;;25.27;90.42;97387.50;4865240;29;19952;-70
2022/05/24 15:23:06;;;;;;;;;;;;;;;25.16;96.39;97381.00;4865281;29;19962;-70
2022/05/24 15:25:39;;;;;;;;;;;;;;;25.17;95.59;97380.47;4866016;29;19953;-70
2022/05/24 15:28:08;;;;;;;;;;;;;;;25.22;90.36;97376.03;4863915;29;19958;-70
2022/05/24 15:30:36;;;;;;;;;;;;;;;25.31;87.25;97376.56;4852561;29;20274;-70
2022/05/24 15:33:05;;;;;;;;;;;;;;;25.17;94.53;97369.00;4864693;29;19959;-70
2022/05/24 15:35:33;;;;;;;;;;;;;;;25.13;94.98;97371.34;4865600;29;19956;-70
2022/05/24 15:38:01;;;;;;;;;;;;;;;25.23;95.10;97371.88;4865086;29;19949;-70
2022/05/24 15:40:28;;;;;;;;;;;;;;;25.26;95.91;97377.34;4865744;29;19955;-70
2022/05/24 15:42:56;;;;;;;;;;;;;;;25.16;90.27;97375.25;4864555;29;19951;-70
2022/05/24 15:45:24;;;;;;;;;;;;;;;25.13;87.80;97376.28;4865297;29;19957;-70
2022/05/24 15:47:51;;;;;;;;;;;;;;;25.27;84.08;97376.06;4864282;29;19955;-70
2022/05/24 15:50:19;;;;;;;;;;;;;;;25.19;85.80;97369.28;4865193;29;20245;-70
2022/05/24 15:52:48;;;;;;;;;;;;;;;25.10;88.98;97363.03;4860873;29;19965;-70
2022/05/24 15:55:16;;;;;;;;;;;;;;;25.09;81.57;97359.38;4859350;29;19950;-70
2022/05/24 15:57:43;;;;;;;;;;;;;;;25.12;81.21;97366.13;4865247;29;19964;-70
2022/05/24 16:00:14;;;;;;;;;;;;;;;25.09;82.97;97353.66;4865647;29;19964;-71
2022/05/24 16:02:46;;;;;;;;;;;;;;;25.05;81.62;97370.31;4865441;29;20231;-71
2022/05/24 16:11:04;;;;;;;;;;;;;;;24.90;89.42;97355.44;4858151;29;19954;-71
2022/05/24 16:13:34;;;;;;;;;;;;;;;24.90;90.09;97346.88;4864215;29;19959;-71
2022/05/24 16:16:05;;;;;;;;;;;;;;;24.85;92.33;97347.63;4846908;29;20249;-71
2022/05/24 16:18:34;;;;;;;;;;;;;;;24.84;85.33;97356.75;4845702;29;20371;-71
2022/05/24 16:21:02;;;;;;;;;;;;;;;24.81;89.53;97355.69;4845576;29;19957;-71
2022/05/24 16:23:29;;;;;;;;;;;;;;;24.93;88.37;97354.41;4846340;29;19951;-71
2022/05/24 16:25:57;;;;;;;;;;;;;;;24.89;89.83;97351.03;4846114;29;20400;-71
2022/05/24 16:28:24;;;;;;;;;;;;;;;24.95;88.69;97360.41;4845655;29;19960;-71
2022/05/24 16:30:51;;;;;;;;;;;;;;;24.83;91.83;97358.03;4846398;29;19977;-70
2022/05/24 16:33:20;;;;;;;;;;;;;;;24.85;91.47;97366.88;4846108;29;19949;-70
2022/05/24 16:36:05;;;;;;;;;;;;;;;24.79;94.62;97364.00;4845929;29;19963;-70
2022/05/24 16:38:34;;;;;;;;;;;;;;;24.77;90.63;97361.66;4846128;29;19970;-70
2022/05/24 16:41:01;;;;;;;;;;;;;;;24.74;92.84;97373.31;4846396;29;19982;-70
2022/05/24 16:43:28;;;;;;;;;;;;;;;24.68;96.39;97369.66;4846078;29;19952;-70
2022/05/24 16:45:55;;;;;;;;;;;;;;;24.63;95.47;97373.28;4845881;29;20069;-70
2022/05/24 16:48:23;;;;;;;;;;;;;;;24.53;99.38;97364.16;4846126;29;19952;-70
2022/05/24 16:50:50;;;;;;;;;;;;;;;24.50;94.70;97367.28;4845675;29;19950;-70
2022/05/24 16:53:21;;;;;;;;;;;;;;;24.47;90.50;97374.78;4845147;29;20263;-70
2022/05/24 16:58:44;;;;;;;;;;;;;;;24.29;90.71;97368.72;4833456;29;19972;-70
2022/05/24 17:01:12;;;;;;;;;;;;;;;24.24;91.68;97367.41;4846300;29;19957;-70
2022/05/24 17:03:39;;;;;;;;;;;;;;;24.04;90.26;97361.81;4845778;29;20033;-70
2022/05/24 17:06:07;;;;;;;;;;;;;;;24.00;89.52;97372.69;4829948;29;20247;-70
2022/05/24 17:08:35;;;;;;;;;;;;;;;23.98;94.53;97376.06;4845767;29;19949;-70
2022/05/24 17:11:03;;;;;;;;;;;;;;;23.91;89.67;97375.78;4846258;29;19947;-70
2022/05/24 17:13:30;;;;;;;;;;;;;;;23.86;89.41;97385.88;4846861;29;19954;-71
2022/05/24 17:15:57;;;;;;;;;;;;;;;23.75;89.77;97387.84;4864336;29;19957;-71
2022/05/24 17:18:24;;;;;;;;;;;;;;;23.70;88.43;97389.38;4864365;29;19954;-71
2022/05/24 17:20:51;;;;;;;;;;;;;;;23.60;93.05;97390.09;4863998;29;20371;-71
2022/05/24 17:23:19;;;;;;;;;;;;;;;23.58;91.91;97404.84;4866233;29;20405;-71
2022/05/24 17:25:47;;;;;;;;;;;;;;;23.56;92.36;97400.94;4867417;29;19945;-70
2022/05/24 17:28:14;;;;;;;;;;;;;;;23.65;87.05;97401.53;4867562;29;20260;-70
2022/05/24 17:30:41;;;;;;;;;;;;;;;23.57;87.33;97396.81;4863631;29;19958;-70
2022/05/24 17:33:16;;;;;;;;;;;;;;;23.43;94.22;97398.50;4866893;29;19955;-70
2022/05/24 17:35:43;;;;;;;;;;;;;;;23.43;93.53;97402.13;4867184;29;20367;-70
2022/05/24 17:38:11;;;;;;;;;;;;;;;23.39;93.25;97395.88;4867243;29;19947;-70
2022/05/24 17:40:39;;;;;;;;;;;;;;;23.37;94.01;97394.81;4867109;29;19970;-70
2022/05/24 17:43:11;;;;;;;;;;;;;;;23.33;93.21;97388.50;4867192;29;20336;-70
2022/05/24 17:45:39;;;;;;;;;;;;;;;23.25;94.87;97391.06;4867737;29;19948;-70
2022/05/24 17:48:08;;;;;;;;;;;;;;;23.25;95.27;97387.44;4866826;29;19959;-71
2022/05/24 17:50:36;;;;;;;;;;;;;;;23.21;96.39;97386.84;4866883;29;19958;-71
2022/05/24 17:53:04;;;;;;;;;;;;;;;23.08;100.00;97383.63;4866431;29;20238;-71
2022/05/24 17:55:32;;;;;;;;;;;;;;;23.04;100.00;97383.06;4867121;29;19959;-70
2022/05/24 17:57:59;;;;;;;;;;;;;;;22.94;100.00;97378.84;4867425;29;19953;-70
2022/05/24 18:00:26;;;;;;;;;;;;;;;22.92;100.00;97376.47;4866754;29;20247;-70